Time;durP1;ratioP1;P1;durP2;ratioP2;P2;SDS_P1;SDS_P2;PMS_P1;PMS_P2;Temp;Humidity;BMP_temperature;BMP_pressure;BME280_temperature;BME280_humidity;BME280_pressure;Samples;Min_cycle;Max_cycle;Signal;HPM_P1;HPM_P2
2021/04/15 00:01:10;;;;;;;34.05;23.73;;;;;;;10.05;71.84;98633.33;1799136;78;21295;-60
2021/04/15 00:03:38;;;;;;;31.40;22.13;;;;;;;9.95;72.13;98627.27;1799053;78;21275;-59
2021/04/15 00:06:14;;;;;;;41.75;23.32;;;;;;;9.90;72.23;98623.78;1799111;80;21338;-59
2021/04/15 00:08:45;;;;;;;34.38;22.58;;;;;;;9.89;72.34;98622.04;1799343;80;21137;-58
2021/04/15 00:11:18;;;;;;;38.55;23.70;;;;;;;9.92;72.42;98622.05;1799143;80;21121;-58
2021/04/15 00:13:53;;;;;;;34.18;24.45;;;;;;;9.97;72.39;98617.80;1799140;78;21140;-59
2021/04/15 00:16:25;;;;;;;33.13;24.15;;;;;;;9.99;72.26;98616.11;1799000;78;21765;-58
2021/04/15 00:18:54;;;;;;;35.15;24.37;;;;;;;10.02;72.12;98621.28;1799377;78;21293;-59
2021/04/15 00:21:24;;;;;;;37.15;24.45;;;;;;;10.02;72.12;98618.70;1799188;80;21082;-58
2021/04/15 00:23:52;;;;;;;36.17;23.73;;;;;;;10.02;72.05;98617.41;1783825;80;21276;-59
2021/04/15 00:26:23;;;;;;;35.13;24.25;;;;;;;10.04;72.05;98611.84;1776592;81;21284;-60
2021/04/15 00:28:54;;;;;;;37.15;24.77;;;;;;;10.05;72.01;98613.59;1776555;80;21561;-58
2021/04/15 00:31:25;;;;;;;40.67;25.08;;;;;;;10.06;72.05;98615.30;1776849;81;21169;-58
2021/04/15 00:33:54;;;;;;;34.03;23.53;;;;;;;10.05;72.13;98611.02;1776861;81;21253;-59
2021/04/15 00:36:25;;;;;;;33.45;23.47;;;;;;;10.05;72.14;98612.70;1782619;79;21149;-59
2021/04/15 00:38:55;;;;;;;36.75;22.77;;;;;;;10.03;72.15;98604.12;1776781;79;21209;-58
2021/04/15 00:41:26;;;;;;;35.25;23.15;;;;;;;10.00;72.22;98607.11;1776758;80;21138;-58
2021/04/15 00:43:54;;;;;;;37.10;24.07;;;;;;;9.99;72.27;98608.38;1776685;80;21162;-59
2021/04/15 00:46:40;;;;;;;38.50;24.15;;;;;;;9.98;72.33;98605.37;1776971;81;21284;-59
2021/04/15 00:49:13;;;;;;;37.28;25.00;;;;;;;10.00;72.35;98602.38;1776937;81;21137;-59
2021/04/15 00:51:47;;;;;;;35.38;23.55;;;;;;;10.01;72.40;98604.09;1782894;79;21272;-59
2021/04/15 00:54:29;;;;;;;38.90;24.57;;;;;;;10.02;72.38;98598.51;1776566;79;21408;-57
2021/04/15 00:56:57;;;;;;;37.73;25.60;;;;;;;10.00;72.46;98593.36;1765276;81;21181;-58
2021/04/15 00:59:27;;;;;;;35.98;24.75;;;;;;;10.02;72.48;98596.78;1776628;80;21232;-59
2021/04/15 01:01:55;;;;;;;39.88;25.65;;;;;;;10.01;72.44;98598.94;1775848;81;21311;-58
2021/04/15 01:04:23;;;;;;;31.17;22.85;;;;;;;10.01;72.42;98595.07;1776767;80;21133;-57
2021/04/15 01:06:51;;;;;;;37.73;23.45;;;;;;;10.01;72.50;98593.78;1776962;79;21276;-59
2021/04/15 01:09:20;;;;;;;39.33;26.10;;;;;;;10.04;72.29;98595.52;1776610;81;21320;-58
2021/04/15 01:12:04;;;;;;;36.60;25.50;;;;;;;10.06;72.22;98596.41;1776727;80;21134;-57
2021/04/15 01:15:19;;;;;;;39.48;27.77;;;;;;;10.06;72.13;98591.25;1776820;80;21149;-59
2021/04/15 01:18:01;;;;;;;39.55;26.00;;;;;;;10.04;72.18;98589.08;1776839;81;21156;-59
2021/04/15 01:21:09;;;;;;;35.92;24.65;;;;;;;10.00;72.25;98589.49;1776962;81;21224;-59
2021/04/15 01:24:08;;;;;;;34.83;25.60;;;;;;;9.96;72.34;98590.31;1776543;79;21106;-58
2021/04/15 01:27:26;;;;;;;40.00;25.70;;;;;;;9.92;72.48;98586.86;1776622;80;21149;-58
2021/04/15 01:30:16;;;;;;;37.67;24.35;;;;;;;9.90;72.54;98587.70;1776650;81;21137;-60
2021/04/15 01:33:11;;;;;;;35.25;25.30;;;;;;;9.88;72.66;98589.39;1806640;79;21129;-58
2021/04/15 01:35:55;;;;;;;40.05;25.17;;;;;;;9.83;72.78;98589.36;1818026;79;21271;-59
2021/04/15 01:38:36;;;;;;;34.63;24.40;;;;;;;9.81;72.96;98583.75;1817723;77;21137;-59
2021/04/15 01:41:16;;;;;;;37.55;26.02;;;;;;;9.82;73.10;98586.75;1817778;78;21145;-58
2021/04/15 01:43:56;;;;;;;40.28;25.02;;;;;;;9.83;73.15;98584.63;1816160;79;21263;-58
2021/04/15 01:46:28;;;;;;;34.55;25.00;;;;;;;9.84;73.13;98583.77;1817855;77;21118;-58
2021/04/15 01:49:00;;;;;;;38.30;25.08;;;;;;;9.82;73.04;98581.59;1809512;79;21281;-60
2021/04/15 01:51:34;;;;;;;33.45;24.95;;;;;;;9.82;72.97;98581.59;1795240;79;21134;-60
2021/04/15 01:54:14;;;;;;;32.90;23.70;;;;;;;9.80;72.94;98580.75;1796848;79;21137;-59
2021/04/15 01:56:48;;;;;;;39.35;25.57;;;;;;;9.76;72.93;98578.13;1804304;79;21263;-58
2021/04/15 01:59:32;;;;;;;36.58;24.27;;;;;;;9.73;73.01;98572.09;1784831;79;21149;-59
2021/04/15 02:02:05;;;;;;;38.88;23.90;;;;;;;9.71;73.06;98573.36;1788159;79;21260;-59
2021/04/15 02:04:40;;;;;;;37.78;24.20;;;;;;;9.69;73.17;98570.33;1790303;79;21221;-58
2021/04/15 02:07:16;;;;;;;36.60;24.23;;;;;;;9.65;73.24;98569.45;1786792;78;21150;-58
2021/04/15 02:09:47;;;;;;;37.78;24.82;;;;;;;9.62;73.34;98569.88;1806737;79;21143;-57
2021/04/15 02:12:27;;;;;;;37.05;23.77;;;;;;;9.60;73.47;98567.27;1797118;79;21529;-59
2021/04/15 02:15:09;;;;;;;35.23;23.52;;;;;;;9.60;73.61;98559.54;1795702;79;21150;-59
2021/04/15 02:17:40;;;;;;;34.58;24.75;;;;;;;9.64;73.73;98565.56;1797402;79;21162;-60
2021/04/15 02:20:15;;;;;;;37.83;24.75;;;;;;;9.65;73.75;98560.44;1803679;79;21149;-57
2021/04/15 02:23:15;;;;;;;38.35;24.35;;;;;;;9.66;73.72;98557.00;1795122;79;21759;-59
2021/04/15 02:26:06;;;;;;;39.15;23.80;;;;;;;9.66;73.71;98558.29;1796756;79;21146;-58
2021/04/15 02:28:55;;;;;;;38.60;25.32;;;;;;;9.64;73.65;98554.86;1793156;79;21498;-59
2021/04/15 02:31:27;;;;;;;40.78;24.37;;;;;;;9.61;73.74;98552.23;1793251;79;21110;-60
2021/04/15 02:34:03;;;;;;;34.40;23.22;;;;;;;9.57;73.89;98554.37;1796344;79;21130;-59
2021/04/15 02:36:39;;;;;;;35.75;25.15;;;;;;;9.53;74.02;98552.60;1810395;79;21655;-58
2021/04/15 02:39:15;;;;;;;37.25;25.48;;;;;;;9.49;74.22;98555.59;1811425;79;21149;-57
2021/04/15 02:41:46;;;;;;;38.78;26.73;;;;;;;9.44;74.45;98546.96;1812268;79;21290;-58
2021/04/15 02:44:26;;;;;;;32.83;23.50;;;;;;;9.41;74.67;98551.20;1806886;79;21263;-59
2021/04/15 02:47:09;;;;;;;34.23;22.98;;;;;;;9.38;74.90;98549.47;1803541;79;21071;-58
2021/04/15 02:49:37;;;;;;;38.60;25.68;;;;;;;9.39;75.06;98547.75;1794796;79;21866;-58
2021/04/15 02:52:19;;;;;;;34.18;24.00;;;;;;;9.40;75.14;98549.49;1795160;79;21576;-60
2021/04/15 02:55:00;;;;;;;35.68;25.45;;;;;;;9.39;75.18;98549.03;1797451;79;21147;-59
2021/04/15 02:57:42;;;;;;;38.83;25.05;;;;;;;9.37;75.17;98542.60;1793435;79;21161;-58
2021/04/15 03:00:15;;;;;;;41.33;26.23;;;;;;;9.37;75.25;98544.32;1784856;79;21281;-57
2021/04/15 03:03:08;;;;;;;35.73;25.48;;;;;;;9.32;75.36;98546.42;1781041;79;21138;-57
2021/04/15 03:05:52;;;;;;;41.68;25.55;;;;;;;9.30;75.45;98548.11;1794655;79;21189;-57
2021/04/15 03:08:24;;;;;;;38.17;25.43;;;;;;;9.28;75.60;98552.37;1793375;79;21251;-60
2021/04/15 03:11:06;;;;;;;37.03;24.32;;;;;;;9.27;75.77;98544.66;1796505;79;21220;-61
2021/04/15 03:13:43;;;;;;;;;;;;;;;9.29;75.91;98548.97;1792086;79;21759;-58
2021/04/15 03:16:12;;;;;;;36.33;23.55;;;;;;;9.31;75.97;98544.70;1811705;79;20204;-58
2021/04/15 03:18:54;;;;;;;35.35;23.77;;;;;;;9.35;76.08;98550.30;1788276;79;21118;-60
2021/04/15 03:21:40;;;;;;;35.43;22.50;;;;;;;9.39;76.09;98549.03;1811886;78;21137;-58
2021/04/15 03:24:25;;;;;;;29.82;21.42;;;;;;;9.42;76.03;98552.52;1808543;79;21114;-58
2021/04/15 03:27:16;;;;;;;30.32;21.25;;;;;;;9.42;76.03;98551.23;1812909;79;21528;-59
2021/04/15 03:30:08;;;;;;;29.77;21.73;;;;;;;9.42;76.08;98555.09;1810048;78;21130;-60
2021/04/15 03:32:49;;;;;;;34.15;21.07;;;;;;;9.43;76.18;98558.52;1808241;79;21292;-58
2021/04/15 03:35:44;;;;;;;30.80;20.32;;;;;;;9.46;76.22;98548.25;1803668;79;21115;-59
2021/04/15 03:38:41;;;;;;;35.13;21.15;;;;;;;9.45;76.25;98550.39;1793874;79;21268;-57
2021/04/15 03:41:14;;;;;;;34.70;20.90;;;;;;;9.46;76.35;98552.11;1796003;79;21798;-59
2021/04/15 03:43:50;;;;;;;31.30;20.55;;;;;;;9.47;76.44;98549.56;1797771;79;21616;-59
2021/04/15 03:46:46;;;;;;;30.43;20.72;;;;;;;9.52;76.45;98556.05;1809668;79;21170;-58
2021/04/15 03:49:26;;;;;;;31.57;20.80;;;;;;;9.58;76.36;98552.22;1809508;79;21154;-59
2021/04/15 03:52:03;;;;;;;36.50;21.00;;;;;;;9.61;76.27;98556.09;1808571;79;21126;-58
2021/04/15 03:54:41;;;;;;;28.62;19.90;;;;;;;9.67;76.16;98558.75;1853679;76;22615;-61
2021/04/15 03:57:14;;;;;;;30.00;18.70;;;;;;;9.64;76.10;98560.41;1809759;77;21153;-58
2021/04/15 03:59:57;;;;;;;30.35;20.62;;;;;;;9.60;76.12;98558.69;1812851;78;21122;-57
2021/04/15 04:02:38;;;;;;;33.08;22.10;;;;;;;9.58;76.20;98557.37;1812596;78;21252;-59
2021/04/15 04:05:21;;;;;;;32.13;20.77;;;;;;;9.59;76.25;98563.38;1814927;78;21122;-57
2021/04/15 04:08:03;;;;;;;36.10;21.10;;;;;;;9.66;76.28;98560.01;1854305;76;22179;-59
2021/04/15 04:10:35;;;;;;;32.90;21.75;;;;;;;9.62;76.27;98555.27;1812966;78;21194;-59
2021/04/15 04:13:34;;;;;;;33.38;21.75;;;;;;;9.68;76.32;98566.90;1805963;78;21138;-56
2021/04/15 04:16:11;;;;;;;32.93;21.85;;;;;;;9.73;76.32;98570.80;1812802;78;21276;-58
2021/04/15 04:18:56;;;;;;;29.90;20.55;;;;;;;9.78;76.17;98568.70;1799028;78;21256;-58
2021/04/15 04:21:56;;;;;;;32.73;23.18;;;;;;;9.77;76.12;98569.99;1795318;79;21166;-59
2021/04/15 04:24:47;;;;;;;31.60;21.15;;;;;;;9.77;76.17;98569.99;1795184;79;21161;-59
2021/04/15 04:27:33;;;;;;;34.83;21.87;;;;;;;9.76;76.09;98567.81;1795225;79;21177;-61
2021/04/15 04:30:24;;;;;;;32.63;22.85;;;;;;;9.81;76.08;98569.14;1795388;80;21552;-58
2021/04/15 04:33:00;;;;;;;37.38;24.47;;;;;;;9.84;75.96;98563.15;1795014;79;21115;-59
2021/04/15 04:35:34;;;;;;;36.10;24.80;;;;;;;9.84;75.85;98565.30;1800062;78;21083;-59
2021/04/15 04:38:04;;;;;;;;;;;;;;;9.84;75.86;98560.58;1815816;78;21545;-59
2021/04/15 04:40:40;;;;;;;33.05;24.15;;;;;;;9.85;75.83;98566.19;1812850;78;20153;-60
2021/04/15 04:43:27;;;;;;;34.05;24.32;;;;;;;9.80;75.89;98562.28;1812831;78;21095;-58
2021/04/15 04:46:04;;;;;;;34.65;23.57;;;;;;;9.73;75.95;98566.51;1814148;78;21565;-57
2021/04/15 04:48:37;;;;;;;38.63;23.90;;;;;;;9.67;76.04;98563.90;1788616;78;21192;-61
2021/04/15 04:51:12;;;;;;;37.58;23.62;;;;;;;9.66;76.25;98566.45;1810147;78;21153;-62
2021/04/15 04:53:43;;;;;;;35.10;23.55;;;;;;;9.69;76.37;98571.22;1809552;78;21118;-57
2021/04/15 04:56:41;;;;;;;41.70;26.37;;;;;;;9.74;76.38;98572.12;1810111;77;21221;-58
2021/04/15 04:59:20;;;;;;;37.53;27.00;;;;;;;9.83;76.34;98570.45;1812030;78;21588;-59
2021/04/15 05:01:47;;;;;;;44.18;26.33;;;;;;;9.91;76.25;98576.53;1811954;78;21145;-59
2021/04/15 05:04:21;;;;;;;55.15;39.20;;;;;;;10.00;76.22;98575.31;1812232;77;21247;-60
2021/04/15 05:06:50;;;;;;;64.20;44.65;;;;;;;10.17;75.98;98576.70;1805073;78;21154;-59
2021/04/15 05:09:38;;;;;;;58.33;36.25;;;;;;;10.49;75.64;98578.21;1795200;79;21261;-60
2021/04/15 05:12:09;;;;;;;53.45;33.30;;;;;;;11.33;74.82;98580.22;1798392;79;21289;-60
2021/04/15 05:14:39;;;;;;;47.83;29.50;;;;;;;12.55;71.76;98571.97;1798422;79;21546;-59
2021/04/15 05:17:31;;;;;;;50.80;31.23;;;;;;;13.04;69.43;98574.34;1796373;79;21166;-61
2021/04/15 05:20:07;;;;;;;45.60;28.57;;;;;;;13.13;68.06;98581.22;1799189;78;21142;-59
2021/04/15 05:22:59;;;;;;;39.95;27.20;;;;;;;13.01;67.07;98578.24;1793570;78;21569;-59
2021/04/15 05:25:57;;;;;;;39.83;26.77;;;;;;;12.85;66.69;98577.46;1798361;79;21462;-58
2021/04/15 05:28:25;;;;;;;38.25;27.58;;;;;;;12.57;66.79;98574.13;1793364;79;21166;-57
2021/04/15 05:30:54;;;;;;;44.30;29.27;;;;;;;12.27;67.40;98581.09;1797163;79;21273;-58
2021/04/15 05:33:26;;;;;;;41.68;28.32;;;;;;;12.32;67.73;98579.36;1799073;79;21644;-60
2021/04/15 05:36:23;;;;;;;41.33;27.70;;;;;;;13.11;67.42;98581.21;1795153;78;21099;-58
2021/04/15 05:38:55;;;;;;;40.10;26.12;;;;;;;14.44;65.32;98583.19;1798747;79;21261;-60
2021/04/15 05:41:40;;;;;;;40.60;28.38;;;;;;;15.05;62.28;98577.73;1795234;78;21142;-61
2021/04/15 05:44:16;;;;;;;39.53;26.80;;;;;;;15.03;60.79;98578.63;1804168;78;21272;-60
2021/04/15 05:46:47;;;;;;;40.85;27.93;;;;;;;14.70;60.92;98583.36;1812653;78;21292;-58
2021/04/15 05:49:25;;;;;;;;;;;;;;;14.54;61.08;98577.05;1815661;79;21162;-61
2021/04/15 05:52:13;;;;;;;41.28;29.18;;;;;;;14.24;61.19;98572.16;1787841;79;20410;-61
2021/04/15 05:54:42;;;;;;;38.15;28.87;;;;;;;14.03;61.85;98568.04;1779738;79;21130;-61
2021/04/15 05:57:15;;;;;;;46.88;29.20;;;;;;;14.05;61.99;98570.19;1743259;81;21150;-59
2021/04/15 06:00:12;;;;;;;40.73;28.83;;;;;;;14.05;61.80;98563.26;1780374;79;21126;-62
2021/04/15 06:03:14;;;;;;;38.35;26.80;;;;;;;13.90;62.09;98563.41;1780893;79;21634;-60
2021/04/15 06:06:04;;;;;;;34.98;27.58;;;;;;;13.61;62.75;98559.33;1780696;79;21133;-60
2021/04/15 06:08:37;;;;;;;40.92;28.47;;;;;;;13.46;63.45;98559.44;1798290;79;21142;-58
2021/04/15 06:11:41;;;;;;;36.25;25.32;;;;;;;13.54;63.63;98558.94;1797926;78;21123;-59
2021/04/15 06:14:12;;;;;;;;;;;;;;;13.64;63.41;98563.62;1800912;79;21134;-60
2021/04/15 06:16:49;;;;;;;39.05;27.62;;;;;;;13.38;63.76;98569.86;1795120;79;20153;-60
2021/04/15 06:19:20;;;;;;;35.35;26.55;;;;;;;13.17;64.54;98569.95;1793808;79;21174;-60
2021/04/15 06:21:55;;;;;;;36.17;25.92;;;;;;;13.07;64.89;98571.72;1794648;79;21553;-59
2021/04/15 06:24:29;;;;;;;36.15;27.10;;;;;;;12.95;65.27;98573.08;1796042;78;21092;-60
2021/04/15 06:27:00;;;;;;;39.15;25.35;;;;;;;12.96;65.61;98570.93;1797332;79;21159;-60
2021/04/15 06:30:10;;;;;;;34.92;24.50;;;;;;;13.01;65.83;98571.77;1799643;79;21154;-60
2021/04/15 06:32:58;;;;;;;36.30;26.02;;;;;;;13.17;65.54;98570.80;1795992;79;21126;-60
2021/04/15 06:35:30;;;;;;;36.77;25.80;;;;;;;13.28;65.27;98569.91;1803974;79;21147;-61
2021/04/15 06:38:22;;;;;;;33.28;24.67;;;;;;;13.33;65.06;98572.03;1803411;78;21272;-62
2021/04/15 06:41:16;;;;;;;39.00;25.47;;;;;;;13.30;64.99;98570.77;1797805;78;21075;-60
2021/04/15 06:44:04;;;;;;;35.63;25.52;;;;;;;13.31;64.97;98570.77;1796799;79;21388;-60
2021/04/15 06:46:41;;;;;;;42.20;27.45;;;;;;;13.41;64.79;98571.58;1794397;79;21256;-60
2021/04/15 06:49:33;;;;;;;39.55;27.13;;;;;;;13.46;64.69;98569.81;1799098;78;21297;-61
2021/04/15 06:52:24;;;;;;;36.90;25.73;;;;;;;13.51;64.48;98569.34;1784758;78;21273;-61
2021/04/15 06:55:41;;;;;;;35.33;25.10;;;;;;;13.54;64.18;98569.31;1812724;78;21151;-60
2021/04/15 06:58:35;;;;;;;32.13;24.32;;;;;;;13.59;63.97;98571.88;1812962;79;21154;-61
2021/04/15 07:01:14;;;;;;;35.33;24.05;;;;;;;13.66;63.74;98570.52;1812442;78;21171;-60
2021/04/15 07:04:08;;;;;;;38.73;24.63;;;;;;;13.80;63.37;98566.50;1812676;79;21260;-60
2021/04/15 07:07:09;;;;;;;37.53;24.18;;;;;;;13.93;63.04;98577.64;1798840;78;21212;-58
2021/04/15 07:10:14;;;;;;;32.93;22.65;;;;;;;13.98;62.75;98570.67;1813343;79;21333;-60
2021/04/15 07:13:31;;;;;;;34.08;23.75;;;;;;;14.06;62.64;98571.45;1758103;78;21164;-61
2021/04/15 07:16:26;;;;;;;36.33;23.85;;;;;;;14.23;62.27;98571.75;1821231;77;21107;-62
2021/04/15 07:19:15;;;;;;;28.77;22.10;;;;;;;14.33;61.95;98575.52;1807781;78;21276;-60
2021/04/15 07:22:01;;;;;;;35.20;22.87;;;;;;;14.47;61.57;98579.70;1807299;79;21319;-61
2021/04/15 07:24:34;;;;;;;28.80;21.70;;;;;;;14.69;61.13;98573.42;1799931;79;21320;-60
2021/04/15 07:27:23;;;;;;;28.27;22.48;;;;;;;14.91;60.52;98575.33;1814421;77;21596;-61
2021/04/15 07:30:21;;;;;;;35.50;22.93;;;;;;;15.09;60.00;98572.07;1806681;79;21140;-60
2021/04/15 07:33:03;;;;;;;27.32;21.80;;;;;;;15.15;59.59;98570.23;1806296;79;21130;-61
2021/04/15 07:36:05;;;;;;;34.25;21.70;;;;;;;15.22;59.02;98576.21;1806714;79;21154;-61
2021/04/15 07:39:15;;;;;;;31.60;21.75;;;;;;;15.48;58.58;98581.47;1806218;79;21122;-59
2021/04/15 07:42:23;;;;;;;28.38;21.12;;;;;;;15.48;58.58;98581.47;1812441;79;21237;-59
2021/04/15 07:45:00;;;;;;;30.52;20.00;;;;;;;15.70;57.57;98580.30;1808193;78;21272;-60
2021/04/15 07:48:06;;;;;;;25.17;18.70;;;;;;;15.92;56.80;98582.53;1807724;79;21135;-61
2021/04/15 07:51:09;;;;;;;26.57;18.87;;;;;;;16.15;56.37;98587.34;1805544;77;21237;-60
2021/04/15 07:53:53;;;;;;;29.00;18.62;;;;;;;16.38;55.27;98584.33;1769084;79;21756;-60
2021/04/15 07:56:42;;;;;;;27.13;18.17;;;;;;;16.58;54.52;98587.41;1806675;79;21268;-66
2021/04/15 07:59:38;;;;;;;23.20;18.42;;;;;;;16.77;53.71;98581.86;1806854;79;21272;-60
2021/04/15 08:02:29;;;;;;;27.02;17.17;;;;;;;16.86;52.96;98582.98;1806080;77;21300;-60
2021/04/15 08:05:35;;;;;;;25.25;17.05;;;;;;;17.19;52.62;98589.69;1807101;79;21182;-61
2021/04/15 08:08:39;;;;;;;23.32;16.48;;;;;;;17.91;51.19;98587.61;1809585;78;21292;-61
2021/04/15 08:11:45;;;;;;;22.42;15.63;;;;;;;18.44;49.68;98591.90;1815029;78;21280;-60
2021/04/15 08:14:39;;;;;;;19.67;13.48;;;;;;;18.76;48.01;98587.56;1753947;80;21324;-61
2021/04/15 08:17:36;;;;;;;18.25;12.15;;;;;;;18.90;47.11;98579.31;1764115;80;21178;-62
2021/04/15 08:20:42;;;;;;;18.55;12.10;;;;;;;19.07;45.10;98582.30;1735304;82;21158;-60
2021/04/15 08:23:37;;;;;;;23.18;12.73;;;;;;;19.45;44.64;98585.97;1708944;84;21139;-59
2021/04/15 08:26:28;;;;;;;16.10;11.25;;;;;;;20.06;43.09;98584.01;1721938;82;21688;-60
2021/04/15 08:29:27;;;;;;;14.68;11.75;;;;;;;20.59;42.24;98582.64;1737253;82;21134;-57
2021/04/15 08:32:40;;;;;;;15.40;10.08;;;;;;;21.59;40.09;98578.03;1662418;82;21184;-61
2021/04/15 08:35:40;;;;;;;14.87;11.18;;;;;;;22.56;37.86;98589.32;1745524;81;21190;-60
2021/04/15 08:38:36;;;;;;;15.25;11.60;;;;;;;23.61;36.34;98584.96;1721872;82;21185;-62
2021/04/15 08:41:37;;;;;;;15.85;10.18;;;;;;;23.48;35.89;98590.41;1740018;82;21300;-60
2021/04/15 08:44:34;;;;;;;13.05;10.40;;;;;;;22.48;37.05;98595.38;1743560;82;21166;-62
2021/04/15 08:47:30;;;;;;;11.33;8.98;;;;;;;21.75;37.78;98584.36;1745801;82;21138;-61
2021/04/15 08:50:11;;;;;;;11.40;8.75;;;;;;;21.39;38.02;98588.86;1745581;82;21178;-61
2021/04/15 08:53:05;;;;;;;15.50;9.13;;;;;;;21.05;38.21;98591.05;1721745;81;21230;-60
2021/04/15 08:55:53;;;;;;;14.90;8.90;;;;;;;20.36;39.05;98586.04;1728631;82;21265;-59
2021/04/15 08:58:42;;;;;;;13.58;9.33;;;;;;;20.01;40.11;98587.23;1729556;81;21146;-59
2021/04/15 09:01:18;;;;;;;12.85;8.63;;;;;;;20.30;39.90;98584.08;1725733;82;21325;-57
2021/04/15 09:03:57;;;;;;;10.43;7.75;;;;;;;20.34;39.73;98580.45;1726514;83;21280;-61
2021/04/15 09:06:43;;;;;;;11.45;7.72;;;;;;;20.47;39.53;98576.48;1723869;82;21167;-56
2021/04/15 09:09:51;;;;;;;12.58;8.30;;;;;;;20.63;38.87;98570.72;1717199;82;21167;-60
2021/04/15 09:12:44;;;;;;;11.15;8.43;;;;;;;20.40;38.69;98573.67;1715701;83;21133;-59
2021/04/15 09:15:26;;;;;;;13.53;8.95;;;;;;;20.09;38.99;98576.50;1765515;80;21280;-60
2021/04/15 09:18:13;;;;;;;;;;;;;;;19.83;39.33;98574.77;1766935;80;21284;-58
2021/04/15 09:20:58;;;;;;;16.02;9.70;;;;;;;19.65;39.59;98570.95;1755940;80;20401;-60
2021/04/15 09:23:34;;;;;;;15.68;9.58;;;;;;;19.51;40.08;98570.05;1755424;80;21158;-59
2021/04/15 09:26:42;;;;;;;11.40;9.53;;;;;;;19.42;40.65;98553.36;1716161;83;21224;-58
2021/04/15 09:29:33;;;;;;;14.10;10.85;;;;;;;19.42;40.65;98553.36;1755489;81;21277;-61
2021/04/15 09:32:21;;;;;;;14.38;10.60;;;;;;;19.48;40.50;98557.08;1755040;81;21292;-61
2021/04/15 09:35:15;;;;;;;13.25;9.75;;;;;;;19.47;40.25;98552.76;1750169;82;21308;-58
2021/04/15 09:38:11;;;;;;;14.38;10.80;;;;;;;19.35;40.53;98550.06;1716541;82;21141;-59
2021/04/15 09:41:24;;;;;;;14.38;10.08;;;;;;;19.29;40.57;98545.03;1755976;82;21111;-60
2021/04/15 09:44:03;;;;;;;12.35;10.32;;;;;;;19.19;40.75;98549.69;1704292;81;21141;-61
2021/04/15 09:46:48;;;;;;;13.62;10.53;;;;;;;19.05;41.20;98546.63;1755505;81;21559;-58
2021/04/15 09:49:40;;;;;;;15.58;9.80;;;;;;;18.93;41.36;98544.37;1755607;80;21147;-60
2021/04/15 09:52:31;;;;;;;14.80;10.88;;;;;;;18.93;41.36;98544.37;1755925;82;21154;-59
2021/04/15 09:55:47;;;;;;;12.73;9.48;;;;;;;18.84;40.90;98537.20;1755841;82;21694;-59
2021/04/15 09:58:38;;;;;;;13.60;10.32;;;;;;;18.52;41.40;98533.32;1752154;82;21146;-57
2021/04/15 10:01:27;;;;;;;16.70;10.03;;;;;;;17.73;42.84;98537.99;1755897;82;21293;-60
2021/04/15 10:04:36;;;;;;;18.42;10.03;;;;;;;17.58;43.49;98541.83;1705749;83;21190;-59
2021/04/15 10:07:18;;;;;;;16.15;9.78;;;;;;;17.73;43.23;98546.24;1755843;80;21166;-60
2021/04/15 10:10:16;;;;;;;12.13;9.35;;;;;;;17.82;42.92;98535.62;1732053;80;21308;-59
2021/04/15 10:13:19;;;;;;;13.38;9.53;;;;;;;17.91;42.71;98531.48;1758145;82;21154;-60
2021/04/15 10:16:23;;;;;;;16.15;9.75;;;;;;;17.88;42.81;98530.69;1758121;80;21288;-59
2021/04/15 10:19:33;;;;;;;16.85;10.53;;;;;;;17.87;42.84;98526.38;1757972;80;21165;-60
2021/04/15 10:22:39;;;;;;;13.72;10.15;;;;;;;17.93;42.74;98523.14;1758159;82;21115;-58
2021/04/15 10:25:17;;;;;;;12.75;8.83;;;;;;;17.68;42.91;98535.06;1757966;80;21138;-60
2021/04/15 10:28:30;;;;;;;20.50;10.95;;;;;;;17.61;42.92;98530.45;1758021;80;21264;-61
2021/04/15 10:31:24;;;;;;;14.73;10.15;;;;;;;17.47;43.47;98526.86;1757908;81;21166;-60
2021/04/15 10:34:16;;;;;;;13.98;10.15;;;;;;;17.31;43.41;98521.61;1757900;80;21148;-58
2021/04/15 10:37:32;;;;;;;13.03;9.53;;;;;;;16.89;43.79;98521.25;1758396;82;21677;-60
2021/04/15 10:40:31;;;;;;;16.97;10.23;;;;;;;16.57;44.57;98523.63;1757967;81;21149;-61
2021/04/15 10:43:47;;;;;;;13.80;9.10;;;;;;;16.55;44.88;98522.80;1758125;80;21126;-60
2021/04/15 10:46:37;;;;;;;14.85;9.93;;;;;;;16.55;44.66;98519.75;1757970;82;21300;-60
2021/04/15 10:49:38;;;;;;;14.43;10.25;;;;;;;16.46;45.01;98530.34;1754530;82;21367;-61
2021/04/15 10:52:32;;;;;;;15.53;10.65;;;;;;;16.48;45.08;98527.27;1756495;81;21194;-59
2021/04/15 10:55:27;;;;;;;15.45;10.03;;;;;;;16.57;44.86;98525.79;1758147;82;21162;-60
2021/04/15 10:58:00;;;;;;;11.85;9.40;;;;;;;16.61;44.55;98526.57;1757004;81;21146;-57
2021/04/15 11:00:33;;;;;;;14.78;10.10;;;;;;;16.61;44.60;98523.55;1733850;82;21185;-60
2021/04/15 11:03:21;;;;;;;18.25;10.72;;;;;;;16.67;44.55;98522.11;1758248;82;21150;-58
2021/04/15 11:05:55;;;;;;;15.90;10.13;;;;;;;16.58;44.12;98518.82;1757947;82;21161;-61
2021/04/15 11:08:30;;;;;;;17.10;11.15;;;;;;;16.38;44.77;98527.03;1755738;80;21162;-59
2021/04/15 11:11:16;;;;;;;17.48;10.85;;;;;;;16.32;44.87;98521.95;1750230;81;21170;-61
2021/04/15 11:13:47;;;;;;;15.00;11.18;;;;;;;16.30;44.88;98527.63;1749943;81;21597;-59
2021/04/15 11:16:23;;;;;;;12.18;9.45;;;;;;;16.26;44.86;98526.39;1750053;82;21304;-59
2021/04/15 11:18:52;;;;;;;14.43;10.68;;;;;;;16.27;44.77;98524.19;1749975;82;21155;-59
2021/04/15 11:21:27;;;;;;;13.72;10.28;;;;;;;16.30;44.58;98523.27;1750110;80;21284;-60
2021/04/15 11:23:59;;;;;;;13.30;10.18;;;;;;;16.34;44.47;98527.55;1750487;81;21162;-60
2021/04/15 11:26:31;;;;;;;11.83;8.98;;;;;;;16.41;44.30;98522.64;1749469;80;21733;-59
2021/04/15 11:29:04;;;;;;;12.00;9.05;;;;;;;16.48;44.16;98520.75;1759318;79;21585;-61
2021/04/15 11:31:38;;;;;;;11.90;9.40;;;;;;;16.57;43.14;98515.37;1734959;82;21281;-60
2021/04/15 11:34:11;;;;;;;13.53;10.08;;;;;;;16.62;43.01;98511.38;1749513;80;21217;-59
2021/04/15 11:36:45;;;;;;;14.58;10.43;;;;;;;16.57;43.21;98512.77;1713953;84;21133;-60
2021/04/15 11:39:26;;;;;;;14.80;10.40;;;;;;;16.44;43.66;98513.45;1749256;81;21287;-60
2021/04/15 11:42:02;;;;;;;11.97;9.53;;;;;;;16.32;44.37;98508.94;1737279;82;21156;-59
2021/04/15 11:44:55;;;;;;;17.77;10.82;;;;;;;16.41;44.34;98511.34;1712654;83;21142;-60
2021/04/15 11:47:28;;;;;;;15.23;9.25;;;;;;;16.55;44.06;98509.33;1759534;80;21574;-60
2021/04/15 11:50:09;;;;;;;13.08;9.13;;;;;;;16.69;43.56;98507.30;1749246;82;21151;-61
2021/04/15 11:52:46;;;;;;;15.50;12.05;;;;;;;16.90;43.38;98507.77;1853567;76;27943;-59
2021/04/15 11:55:28;;;;;;;13.90;10.93;;;;;;;16.93;43.30;98504.63;1760469;80;21508;-60
2021/04/15 11:58:08;;;;;;;14.73;10.10;;;;;;;16.97;43.24;98511.08;1776866;80;21212;-60
2021/04/15 12:00:43;;;;;;;16.10;10.30;;;;;;;16.87;43.52;98504.78;1752716;81;21161;-59
2021/04/15 12:03:20;;;;;;;15.65;10.88;;;;;;;16.62;43.68;98501.80;1739141;82;21163;-58
2021/04/15 12:05:49;;;;;;;13.72;11.33;;;;;;;16.29;44.45;98504.64;1730836;81;21188;-61
2021/04/15 12:08:37;;;;;;;15.48;11.80;;;;;;;16.20;44.67;98501.76;1730677;81;21278;-60
2021/04/15 12:11:24;;;;;;;18.25;10.70;;;;;;;16.20;44.71;98512.17;1730647;81;21113;-59
2021/04/15 12:14:01;;;;;;;16.07;11.90;;;;;;;16.11;44.93;98499.80;1751937;81;21579;-59
2021/04/15 12:17:11;;;;;;;13.40;10.13;;;;;;;15.93;45.56;98501.00;1751765;81;21140;-59
2021/04/15 12:19:59;;;;;;;17.15;11.75;;;;;;;15.76;45.97;98507.34;1751437;81;21160;-60
2021/04/15 12:22:56;;;;;;;22.58;15.28;;;;;;;15.60;48.00;98500.66;1743956;81;21168;-60
2021/04/15 12:25:42;;;;;;;20.90;15.65;;;;;;;15.45;50.40;98500.47;1751687;81;21156;-60
2021/04/15 12:28:37;;;;;;;22.82;15.35;;;;;;;15.25;51.11;98499.92;1749833;81;21133;-59
2021/04/15 12:31:45;;;;;;;23.45;14.70;;;;;;;15.08;52.04;98491.07;1751843;81;21147;-60
2021/04/15 12:34:23;;;;;;;25.48;16.40;;;;;;;14.84;53.37;98493.14;1751779;81;21164;-61
2021/04/15 12:37:05;;;;;;;21.85;16.10;;;;;;;14.67;54.24;98490.77;1752183;81;21160;-59
2021/04/15 12:39:51;;;;;;;26.82;17.60;;;;;;;14.54;54.79;98497.85;1751442;81;21168;-59
2021/04/15 12:42:24;;;;;;;29.80;18.95;;;;;;;14.41;55.83;98486.32;1752058;81;21188;-58